sensor_id;sensor_type;location;lat;lon;timestamp;pressure;altitude;pressure_sealevel;temperature;humidity
79075;BME280;68476;42.710;23.388;2023-05-25T00:01:33;95549.34;;;12.87;80.23
79075;BME280;68476;42.710;23.388;2023-05-25T00:04:01;95545.78;;;12.87;81.90
79075;BME280;68476;42.710;23.388;2023-05-25T00:06:28;95547.84;;;12.79;83.47
79075;BME280;68476;42.710;23.388;2023-05-25T00:08:55;95549.84;;;12.84;82.12
79075;BME280;68476;42.710;23.388;2023-05-25T00:11:22;95557.44;;;12.82;80.81
79075;BME280;68476;42.710;23.388;2023-05-25T00:13:48;95556.13;;;12.85;80.46
79075;BME280;68476;42.710;23.388;2023-05-25T00:16:14;95550.66;;;12.85;81.26
79075;BME280;68476;42.710;23.388;2023-05-25T00:18:40;95553.38;;;12.85;81.47
79075;BME280;68476;42.710;23.388;2023-05-25T00:21:05;95553.94;;;12.70;81.52
79075;BME280;68476;42.710;23.388;2023-05-25T00:23:32;95563.34;;;12.62;81.63
79075;BME280;68476;42.710;23.388;2023-05-25T00:25:58;95550.06;;;12.54;81.13
79075;BME280;68476;42.710;23.388;2023-05-25T00:28:23;95539.59;;;12.51;81.26
79075;BME280;68476;42.710;23.388;2023-05-25T00:30:49;95550.53;;;12.51;81.17
79075;BME280;68476;42.710;23.388;2023-05-25T00:33:14;95549.38;;;12.46;80.84
79075;BME280;68476;42.710;23.388;2023-05-25T00:35:41;95543.78;;;12.41;80.53
79075;BME280;68476;42.710;23.388;2023-05-25T00:38:17;95552.44;;;12.50;80.80
79075;BME280;68476;42.710;23.388;2023-05-25T00:40:43;95553.06;;;12.40;80.34
79075;BME280;68476;42.710;23.388;2023-05-25T00:43:09;95556.75;;;12.34;82.25
79075;BME280;68476;42.710;23.388;2023-05-25T00:45:35;95562.13;;;12.17;80.96
79075;BME280;68476;42.710;23.388;2023-05-25T00:48:00;95562.81;;;12.12;82.99
79075;BME280;68476;42.710;23.388;2023-05-25T00:50:39;95559.41;;;12.05;83.09
79075;BME280;68476;42.710;23.388;2023-05-25T00:53:06;95561.88;;;12.07;82.88
79075;BME280;68476;42.710;23.388;2023-05-25T00:56:01;95571.13;;;12.06;83.08
79075;BME280;68476;42.710;23.388;2023-05-25T00:58:30;95576.75;;;11.99;82.95
79075;BME280;68476;42.710;23.388;2023-05-25T01:00:57;95581.72;;;12.02;82.99
79075;BME280;68476;42.710;23.388;2023-05-25T01:03:24;95576.75;;;11.99;82.28
79075;BME280;68476;42.710;23.388;2023-05-25T01:05:53;95583.38;;;12.03;83.41
79075;BME280;68476;42.710;23.388;2023-05-25T01:08:21;95584.22;;;12.15;83.28
79075;BME280;68476;42.710;23.388;2023-05-25T01:10:48;95577.94;;;12.15;82.99
79075;BME280;68476;42.710;23.388;2023-05-25T01:13:16;95577.44;;;12.30;83.03
79075;BME280;68476;42.710;23.388;2023-05-25T01:15:42;95569.56;;;12.45;82.26
79075;BME280;68476;42.710;23.388;2023-05-25T01:18:07;95571.25;;;12.46;82.16
79075;BME280;68476;42.710;23.388;2023-05-25T01:20:33;95575.72;;;12.41;82.47
79075;BME280;68476;42.710;23.388;2023-05-25T01:23:04;95577.91;;;12.39;82.11
79075;BME280;68476;42.710;23.388;2023-05-25T01:25:45;95579.66;;;12.45;81.49
79075;BME280;68476;42.710;23.388;2023-05-25T01:28:16;95573.47;;;12.49;81.39
79075;BME280;68476;42.710;23.388;2023-05-25T01:30:46;95564.09;;;12.45;80.99
79075;BME280;68476;42.710;23.388;2023-05-25T01:33:12;95569.31;;;12.35;81.55
79075;BME280;68476;42.710;23.388;2023-05-25T01:35:39;95560.44;;;12.40;80.85
79075;BME280;68476;42.710;23.388;2023-05-25T01:38:06;95558.78;;;12.27;81.97
79075;BME280;68476;42.710;23.388;2023-05-25T01:40:32;95560.09;;;12.12;82.31
79075;BME280;68476;42.710;23.388;2023-05-25T01:42:58;95550.84;;;12.01;82.55
79075;BME280;68476;42.710;23.388;2023-05-25T01:45:23;95559.06;;;12.01;83.06
79075;BME280;68476;42.710;23.388;2023-05-25T01:53:11;95556.72;;;11.51;84.15
79075;BME280;68476;42.710;23.388;2023-05-25T01:55:58;95544.97;;;11.38;85.49
79075;BME280;68476;42.710;23.388;2023-05-25T01:58:25;95561.59;;;11.49;85.25
79075;BME280;68476;42.710;23.388;2023-05-25T02:00:51;95562.44;;;11.49;85.27
79075;BME280;68476;42.710;23.388;2023-05-25T02:03:17;95568.34;;;11.46;85.68
79075;BME280;68476;42.710;23.388;2023-05-25T02:05:44;95564.69;;;11.52;84.15
79075;BME280;68476;42.710;23.388;2023-05-25T02:08:10;95569.16;;;11.47;83.42
79075;BME280;68476;42.710;23.388;2023-05-25T02:10:36;95570.03;;;11.47;84.77
79075;BME280;68476;42.710;23.388;2023-05-25T02:13:01;95566.44;;;11.47;84.29
79075;BME280;68476;42.710;23.388;2023-05-25T02:15:32;95568.34;;;11.46;85.01
79075;BME280;68476;42.710;23.388;2023-05-25T02:17:57;95578.22;;;11.47;84.82
79075;BME280;68476;42.710;23.388;2023-05-25T02:20:24;95574.28;;;11.43;85.12
79075;BME280;68476;42.710;23.388;2023-05-25T02:22:50;95587.47;;;11.46;85.56
79075;BME280;68476;42.710;23.388;2023-05-25T02:25:16;95582.25;;;11.45;85.21
79075;BME280;68476;42.710;23.388;2023-05-25T02:27:41;95581.75;;;11.48;85.00
79075;BME280;68476;42.710;23.388;2023-05-25T02:30:07;95580.34;;;11.45;84.93
79075;BME280;68476;42.710;23.388;2023-05-25T02:32:32;95586.16;;;11.49;85.24
79075;BME280;68476;42.710;23.388;2023-05-25T02:34:59;95589.81;;;11.43;84.99
79075;BME280;68476;42.710;23.388;2023-05-25T02:37:24;95594.31;;;11.37;84.65
79075;BME280;68476;42.710;23.388;2023-05-25T02:39:50;95598.72;;;11.38;85.58
79075;BME280;68476;42.710;23.388;2023-05-25T02:42:15;95599.63;;;11.32;85.03
79075;BME280;68476;42.710;23.388;2023-05-25T02:44:41;95608.88;;;11.31;84.93
79075;BME280;68476;42.710;23.388;2023-05-25T02:47:12;95610.88;;;11.23;85.06
79075;BME280;68476;42.710;23.388;2023-05-25T02:49:38;95605.75;;;11.15;86.46
79075;BME280;68476;42.710;23.388;2023-05-25T02:52:03;95609.66;;;11.07;86.07
79075;BME280;68476;42.710;23.388;2023-05-25T02:54:30;95618.88;;;11.06;86.70
79075;BME280;68476;42.710;23.388;2023-05-25T02:56:55;95624.88;;;10.97;86.64
79075;BME280;68476;42.710;23.388;2023-05-25T02:59:20;95618.84;;;10.76;87.35
79075;BME280;68476;42.710;23.388;2023-05-25T03:01:46;95626.44;;;10.74;87.86
79075;BME280;68476;42.710;23.388;2023-05-25T03:04:11;95627.63;;;10.59;88.14
79075;BME280;68476;42.710;23.388;2023-05-25T03:06:36;95627.50;;;10.54;87.33
79075;BME280;68476;42.710;23.388;2023-05-25T03:09:02;95628.88;;;10.63;88.47
79075;BME280;68476;42.710;23.388;2023-05-25T03:11:29;95624.56;;;10.74;88.43
79075;BME280;68476;42.710;23.388;2023-05-25T03:13:54;95630.13;;;10.79;88.26
79075;BME280;68476;42.710;23.388;2023-05-25T03:16:20;95627.19;;;10.81;87.99
79075;BME280;68476;42.710;23.388;2023-05-25T03:18:47;95632.16;;;10.84;87.61
79075;BME280;68476;42.710;23.388;2023-05-25T03:21:12;95629.91;;;10.81;87.92
79075;BME280;68476;42.710;23.388;2023-05-25T03:23:38;95624.16;;;10.89;87.55
79075;BME280;68476;42.710;23.388;2023-05-25T03:26:03;95626.53;;;10.98;87.15
79075;BME280;68476;42.710;23.388;2023-05-25T03:28:28;95635.94;;;11.02;87.29
79075;BME280;68476;42.710;23.388;2023-05-25T03:30:54;95631.66;;;11.06;87.34
79075;BME280;68476;42.710;23.388;2023-05-25T03:33:20;95628.66;;;11.14;86.83
79075;BME280;68476;42.710;23.388;2023-05-25T03:35:46;95635.44;;;11.23;86.29
79075;BME280;68476;42.710;23.388;2023-05-25T03:38:11;95630.00;;;11.35;86.52
79075;BME280;68476;42.710;23.388;2023-05-25T03:40:36;95630.50;;;11.44;85.46
79075;BME280;68476;42.710;23.388;2023-05-25T03:43:02;95629.72;;;11.55;85.42
79075;BME280;68476;42.710;23.388;2023-05-25T03:45:27;95638.09;;;11.42;86.38
79075;BME280;68476;42.710;23.388;2023-05-25T03:47:53;95637.19;;;11.48;85.82
79075;BME280;68476;42.710;23.388;2023-05-25T03:50:18;95638.38;;;11.52;85.15
79075;BME280;68476;42.710;23.388;2023-05-25T03:52:44;95644.03;;;11.39;85.60
79075;BME280;68476;42.710;23.388;2023-05-25T03:55:10;95648.91;;;11.49;85.08
79075;BME280;68476;42.710;23.388;2023-05-25T03:57:35;95651.44;;;11.50;84.81
79075;BME280;68476;42.710;23.388;2023-05-25T04:00:01;95655.59;;;11.22;86.45
79075;BME280;68476;42.710;23.388;2023-05-25T04:02:26;95658.22;;;11.29;86.83
79075;BME280;68476;42.710;23.388;2023-05-25T04:04:51;95656.00;;;11.38;86.50
79075;BME280;68476;42.710;23.388;2023-05-25T04:07:18;95656.31;;;11.60;85.68
79075;BME280;68476;42.710;23.388;2023-05-25T04:09:44;95661.00;;;11.83;85.35
79075;BME280;68476;42.710;23.388;2023-05-25T04:12:09;95658.69;;;11.99;84.94
79075;BME280;68476;42.710;23.388;2023-05-25T04:14:35;95661.53;;;12.28;84.31
79075;BME280;68476;42.710;23.388;2023-05-25T04:17:00;95663.56;;;12.32;84.16
79075;BME280;68476;42.710;23.388;2023-05-25T04:19:26;95661.56;;;12.40;84.23
79075;BME280;68476;42.710;23.388;2023-05-25T04:21:51;95654.75;;;12.54;83.86
79075;BME280;68476;42.710;23.388;2023-05-25T04:24:16;95659.63;;;12.64;83.28
79075;BME280;68476;42.710;23.388;2023-05-25T04:26:42;95660.47;;;13.05;82.19
79075;BME280;68476;42.710;23.388;2023-05-25T04:29:08;95663.44;;;13.04;82.07
79075;BME280;68476;42.710;23.388;2023-05-25T04:31:34;95666.94;;;13.40;81.01
79075;BME280;68476;42.710;23.388;2023-05-25T04:33:59;95672.47;;;13.74;78.98
79075;BME280;68476;42.710;23.388;2023-05-25T04:36:26;95674.16;;;13.92;78.95
79075;BME280;68476;42.710;23.388;2023-05-25T04:38:52;95678.97;;;13.85;79.39
79075;BME280;68476;42.710;23.388;2023-05-25T04:41:19;95677.31;;;13.84;79.09
79075;BME280;68476;42.710;23.388;2023-05-25T04:43:44;95678.84;;;14.09;78.16
79075;BME280;68476;42.710;23.388;2023-05-25T04:46:10;95678.50;;;14.05;76.75
79075;BME280;68476;42.710;23.388;2023-05-25T04:48:38;95670.69;;;14.14;77.28
79075;BME280;68476;42.710;23.388;2023-05-25T04:51:04;95669.53;;;14.27;75.60
79075;BME280;68476;42.710;23.388;2023-05-25T04:53:30;95664.13;;;14.15;76.01
79075;BME280;68476;42.710;23.388;2023-05-25T04:55:56;95663.03;;;14.16;75.04
79075;BME280;68476;42.710;23.388;2023-05-25T04:58:23;95654.06;;;14.21;75.40
79075;BME280;68476;42.710;23.388;2023-05-25T05:00:48;95651.16;;;14.44;75.23
79075;BME280;68476;42.710;23.388;2023-05-25T05:03:14;95661.97;;;14.34;74.74
79075;BME280;68476;42.710;23.388;2023-05-25T05:05:39;95664.22;;;14.20;76.19
79075;BME280;68476;42.710;23.388;2023-05-25T05:08:04;95657.19;;;14.63;74.14
79075;BME280;68476;42.710;23.388;2023-05-25T05:10:30;95659.13;;;14.46;74.94
79075;BME280;68476;42.710;23.388;2023-05-25T05:12:55;95665.69;;;14.45;75.41
79075;BME280;68476;42.710;23.388;2023-05-25T05:15:20;95667.03;;;14.25;75.83
79075;BME280;68476;42.710;23.388;2023-05-25T05:17:46;95669.13;;;14.18;75.34
79075;BME280;68476;42.710;23.388;2023-05-25T05:20:12;95663.03;;;14.33;75.12
79075;BME280;68476;42.710;23.388;2023-05-25T05:22:37;95659.06;;;14.07;75.46
79075;BME280;68476;42.710;23.388;2023-05-25T05:25:03;95664.88;;;14.27;75.18
79075;BME280;68476;42.710;23.388;2023-05-25T05:27:29;95664.88;;;14.27;75.16
79075;BME280;68476;42.710;23.388;2023-05-25T05:29:54;95671.69;;;14.42;74.47
79075;BME280;68476;42.710;23.388;2023-05-25T05:32:20;95682.31;;;14.72;73.32
79075;BME280;68476;42.710;23.388;2023-05-25T05:34:45;95684.31;;;15.21;72.57
79075;BME280;68476;42.710;23.388;2023-05-25T05:37:11;95684.69;;;15.08;72.63
79075;BME280;68476;42.710;23.388;2023-05-25T05:39:36;95684.38;;;15.04;73.09
79075;BME280;68476;42.710;23.388;2023-05-25T05:42:01;95679.97;;;15.25;72.50
79075;BME280;68476;42.710;23.388;2023-05-25T05:44:27;95687.31;;;15.20;72.41
79075;BME280;68476;42.710;23.388;2023-05-25T05:46:53;95691.19;;;15.46;72.01
79075;BME280;68476;42.710;23.388;2023-05-25T05:49:25;95690.13;;;15.75;70.58
79075;BME280;68476;42.710;23.388;2023-05-25T05:51:50;95691.72;;;15.70;70.94
79075;BME280;68476;42.710;23.388;2023-05-25T05:54:16;95693.56;;;15.87;71.05
79075;BME280;68476;42.710;23.388;2023-05-25T05:56:41;95679.41;;;16.00;69.85
79075;BME280;68476;42.710;23.388;2023-05-25T05:59:07;95680.84;;;15.81;71.40
79075;BME280;68476;42.710;23.388;2023-05-25T06:01:32;95684.09;;;15.50;72.27
79075;BME280;68476;42.710;23.388;2023-05-25T06:03:58;95675.03;;;15.77;71.38
79075;BME280;68476;42.710;23.388;2023-05-25T06:06:23;95681.69;;;16.09;69.99
79075;BME280;68476;42.710;23.388;2023-05-25T06:08:49;95679.06;;;16.24;69.65
79075;BME280;68476;42.710;23.388;2023-05-25T06:11:14;95678.25;;;16.61;67.08
79075;BME280;68476;42.710;23.388;2023-05-25T06:13:39;95681.09;;;16.77;67.58
79075;BME280;68476;42.710;23.388;2023-05-25T06:16:05;95677.69;;;17.02;66.77
79075;BME280;68476;42.710;23.388;2023-05-25T06:18:30;95681.13;;;17.35;66.18
79075;BME280;68476;42.710;23.388;2023-05-25T06:20:56;95679.25;;;17.51;64.98
79075;BME280;68476;42.710;23.388;2023-05-25T06:23:21;95669.38;;;17.61;64.06
79075;BME280;68476;42.710;23.388;2023-05-25T06:25:46;95671.59;;;17.74;61.94
79075;BME280;68476;42.710;23.388;2023-05-25T06:28:12;95674.91;;;17.66;63.07
79075;BME280;68476;42.710;23.388;2023-05-25T06:30:37;95680.25;;;18.04;61.67
79075;BME280;68476;42.710;23.388;2023-05-25T06:33:03;95684.09;;;18.02;62.32
79075;BME280;68476;42.710;23.388;2023-05-25T06:35:28;95676.81;;;17.60;62.62
79075;BME280;68476;42.710;23.388;2023-05-25T06:37:54;95681.06;;;18.09;61.35
79075;BME280;68476;42.710;23.388;2023-05-25T06:40:19;95689.63;;;18.08;60.90
79075;BME280;68476;42.710;23.388;2023-05-25T06:42:45;95690.66;;;17.76;62.25
79075;BME280;68476;42.710;23.388;2023-05-25T06:45:10;95684.66;;;18.10;61.61
79075;BME280;68476;42.710;23.388;2023-05-25T06:47:36;95687.97;;;18.38;60.92
79075;BME280;68476;42.710;23.388;2023-05-25T06:50:02;95690.72;;;18.69;59.54
79075;BME280;68476;42.710;23.388;2023-05-25T06:52:27;95676.94;;;18.17;60.95
79075;BME280;68476;42.710;23.388;2023-05-25T06:54:53;95681.34;;;18.18;61.14
79075;BME280;68476;42.710;23.388;2023-05-25T06:57:19;95685.44;;;18.93;59.78
79075;BME280;68476;42.710;23.388;2023-05-25T06:59:45;95686.28;;;18.73;59.52
79075;BME280;68476;42.710;23.388;2023-05-25T07:02:10;95688.34;;;19.48;59.18
79075;BME280;68476;42.710;23.388;2023-05-25T07:04:36;95684.38;;;19.65;58.31
79075;BME280;68476;42.710;23.388;2023-05-25T07:07:02;95677.38;;;19.22;58.69
79075;BME280;68476;42.710;23.388;2023-05-25T07:09:27;95681.50;;;19.25;59.79
79075;BME280;68476;42.710;23.388;2023-05-25T07:11:53;95675.63;;;19.42;58.99
79075;BME280;68476;42.710;23.388;2023-05-25T07:14:18;95679.88;;;19.14;58.82
79075;BME280;68476;42.710;23.388;2023-05-25T07:16:43;95678.84;;;18.94;59.99
79075;BME280;68476;42.710;23.388;2023-05-25T07:19:10;95676.75;;;19.41;59.29
79075;BME280;68476;42.710;23.388;2023-05-25T07:21:35;95663.34;;;19.69;58.57
79075;BME280;68476;42.710;23.388;2023-05-25T07:24:01;95672.00;;;19.57;59.07
79075;BME280;68476;42.710;23.388;2023-05-25T07:26:27;95672.66;;;19.89;58.95
79075;BME280;68476;42.710;23.388;2023-05-25T07:28:53;95670.38;;;19.46;59.69
79075;BME280;68476;42.710;23.388;2023-05-25T07:31:18;95679.69;;;19.65;59.71
79075;BME280;68476;42.710;23.388;2023-05-25T07:33:44;95678.41;;;19.42;59.78
79075;BME280;68476;42.710;23.388;2023-05-25T07:36:09;95683.09;;;19.42;60.70
79075;BME280;68476;42.710;23.388;2023-05-25T07:38:35;95671.16;;;19.56;60.58
79075;BME280;68476;42.710;23.388;2023-05-25T07:41:00;95685.84;;;19.47;61.43
79075;BME280;68476;42.710;23.388;2023-05-25T07:43:26;95680.66;;;19.35;62.67
79075;BME280;68476;42.710;23.388;2023-05-25T07:45:52;95688.50;;;18.91;63.86
79075;BME280;68476;42.710;23.388;2023-05-25T07:48:17;95691.84;;;18.47;65.33
79075;BME280;68476;42.710;23.388;2023-05-25T07:50:43;95693.22;;;18.29;65.82
79075;BME280;68476;42.710;23.388;2023-05-25T07:53:08;95697.63;;;18.30;66.29
79075;BME280;68476;42.710;23.388;2023-05-25T07:55:34;95700.66;;;18.23;66.81
79075;BME280;68476;42.710;23.388;2023-05-25T07:57:59;95701.47;;;18.08;65.96
79075;BME280;68476;42.710;23.388;2023-05-25T08:00:25;95708.66;;;18.04;66.31
79075;BME280;68476;42.710;23.388;2023-05-25T08:02:50;95717.97;;;17.93;66.21
79075;BME280;68476;42.710;23.388;2023-05-25T08:05:16;95720.38;;;17.68;67.38
79075;BME280;68476;42.710;23.388;2023-05-25T08:07:41;95721.19;;;17.64;67.02
79075;BME280;68476;42.710;23.388;2023-05-25T08:10:07;95723.03;;;17.43;67.64
79075;BME280;68476;42.710;23.388;2023-05-25T08:12:33;95727.97;;;17.40;67.52
79075;BME280;68476;42.710;23.388;2023-05-25T08:14:58;95731.50;;;17.25;67.76
79075;BME280;68476;42.710;23.388;2023-05-25T08:17:23;95739.50;;;17.27;67.94
79075;BME280;68476;42.710;23.388;2023-05-25T08:19:49;95749.03;;;17.09;68.24
79075;BME280;68476;42.710;23.388;2023-05-25T08:22:15;95749.03;;;17.09;68.39
79075;BME280;68476;42.710;23.388;2023-05-25T08:24:40;95752.50;;;16.94;69.67
79075;BME280;68476;42.710;23.388;2023-05-25T08:27:06;95777.88;;;16.63;72.17
79075;BME280;68476;42.710;23.388;2023-05-25T08:29:31;95775.56;;;16.23;75.18
79075;BME280;68476;42.710;23.388;2023-05-25T08:31:57;95777.53;;;16.00;77.60
79075;BME280;68476;42.710;23.388;2023-05-25T08:34:22;95780.78;;;15.75;79.21
79075;BME280;68476;42.710;23.388;2023-05-25T08:36:48;95768.41;;;15.50;78.86
79075;BME280;68476;42.710;23.388;2023-05-25T08:39:13;95764.91;;;15.32;78.09
79075;BME280;68476;42.710;23.388;2023-05-25T08:41:41;95763.47;;;15.30;78.57
79075;BME280;68476;42.710;23.388;2023-05-25T08:44:07;95757.34;;;15.22;78.63
79075;BME280;68476;42.710;23.388;2023-05-25T08:46:33;95767.53;;;15.05;80.84
79075;BME280;68476;42.710;23.388;2023-05-25T08:49:11;95764.91;;;14.76;81.76
79075;BME280;68476;42.710;23.388;2023-05-25T08:51:41;95766.00;;;14.75;81.12
79075;BME280;68476;42.710;23.388;2023-05-25T08:54:08;95767.22;;;14.84;79.34
79075;BME280;68476;42.710;23.388;2023-05-25T08:56:40;95759.56;;;14.86;79.35
79075;BME280;68476;42.710;23.388;2023-05-25T08:59:21;95775.88;;;14.76;80.38
79075;BME280;68476;42.710;23.388;2023-05-25T09:01:55;95776.03;;;14.86;80.06
79075;BME280;68476;42.710;23.388;2023-05-25T09:04:23;95782.84;;;15.01;80.56
79075;BME280;68476;42.710;23.388;2023-05-25T09:06:49;95787.50;;;14.83;81.44
79075;BME280;68476;42.710;23.388;2023-05-25T09:09:15;95787.50;;;15.00;80.99
79075;BME280;68476;42.710;23.388;2023-05-25T09:11:42;95785.16;;;15.09;80.89
79075;BME280;68476;42.710;23.388;2023-05-25T09:14:10;95788.13;;;15.24;81.17
79075;BME280;68476;42.710;23.388;2023-05-25T09:16:38;95781.81;;;15.07;81.13
79075;BME280;68476;42.710;23.388;2023-05-25T09:19:04;95779.81;;;15.19;81.16
79075;BME280;68476;42.710;23.388;2023-05-25T09:21:30;95780.22;;;15.50;79.92
79075;BME280;68476;42.710;23.388;2023-05-25T09:23:55;95775.19;;;15.64;79.33
79075;BME280;68476;42.710;23.388;2023-05-25T09:26:22;95779.19;;;15.56;80.24
79075;BME280;68476;42.710;23.388;2023-05-25T09:28:47;95779.84;;;15.41;79.87
79075;BME280;68476;42.710;23.388;2023-05-25T09:31:14;95776.53;;;15.62;79.88
79075;BME280;68476;42.710;23.388;2023-05-25T09:33:39;95779.31;;;15.67;79.48
79075;BME280;68476;42.710;23.388;2023-05-25T09:36:05;95771.03;;;15.62;79.73
79075;BME280;68476;42.710;23.388;2023-05-25T09:38:32;95778.13;;;15.57;81.06
79075;BME280;68476;42.710;23.388;2023-05-25T09:40:58;95769.63;;;15.37;81.62
79075;BME280;68476;42.710;23.388;2023-05-25T09:43:24;95765.91;;;15.48;81.81
79075;BME280;68476;42.710;23.388;2023-05-25T09:45:52;95773.56;;;15.46;81.72
79075;BME280;68476;42.710;23.388;2023-05-25T09:48:18;95773.94;;;15.77;81.29
79075;BME280;68476;42.710;23.388;2023-05-25T09:50:45;95772.63;;;15.80;81.16
79075;BME280;68476;42.710;23.388;2023-05-25T09:53:11;95760.28;;;15.82;81.88
79075;BME280;68476;42.710;23.388;2023-05-25T09:55:37;95744.19;;;15.69;82.67
79075;BME280;68476;42.710;23.388;2023-05-25T09:58:02;95770.00;;;15.68;82.98
79075;BME280;68476;42.710;23.388;2023-05-25T10:00:28;95762.38;;;15.97;83.23
79075;BME280;68476;42.710;23.388;2023-05-25T10:02:54;95756.16;;;16.35;81.05
79075;BME280;68476;42.710;23.388;2023-05-25T10:05:19;95757.69;;;16.53;78.93
79075;BME280;68476;42.710;23.388;2023-05-25T10:07:45;95747.84;;;16.29;79.71
79075;BME280;68476;42.710;23.388;2023-05-25T10:10:14;95754.16;;;16.95;78.15
79075;BME280;68476;42.710;23.388;2023-05-25T10:12:41;95750.66;;;16.67;75.43
79075;BME280;68476;42.710;23.388;2023-05-25T10:15:08;95747.63;;;16.69;75.62
79075;BME280;68476;42.710;23.388;2023-05-25T10:17:42;95730.38;;;16.84;75.64
79075;BME280;68476;42.710;23.388;2023-05-25T10:20:09;95732.41;;;16.56;75.46
79075;BME280;68476;42.710;23.388;2023-05-25T10:22:58;95729.22;;;16.69;76.71
79075;BME280;68476;42.710;23.388;2023-05-25T10:27:59;95717.06;;;16.65;74.76
79075;BME280;68476;42.710;23.388;2023-05-25T10:30:26;95712.50;;;16.81;73.34
79075;BME280;68476;42.710;23.388;2023-05-25T10:32:53;95711.31;;;17.09;72.68
79075;BME280;68476;42.710;23.388;2023-05-25T10:35:19;95701.81;;;16.90;74.49
79075;BME280;68476;42.710;23.388;2023-05-25T10:37:45;95706.19;;;16.86;74.73
79075;BME280;68476;42.710;23.388;2023-05-25T10:40:12;95692.31;;;17.87;71.77
79075;BME280;68476;42.710;23.388;2023-05-25T10:42:38;95703.41;;;18.49;71.58
79075;BME280;68476;42.710;23.388;2023-05-25T10:45:06;95703.97;;;18.05;72.07
79075;BME280;68476;42.710;23.388;2023-05-25T10:47:35;95702.13;;;17.47;72.38
79075;BME280;68476;42.710;23.388;2023-05-25T10:50:01;95693.28;;;17.39;71.16
79075;BME280;68476;42.710;23.388;2023-05-25T10:52:28;95697.25;;;17.75;68.96
79075;BME280;68476;42.710;23.388;2023-05-25T10:54:56;95686.59;;;18.04;68.21
79075;BME280;68476;42.710;23.388;2023-05-25T10:57:23;95692.69;;;18.37;66.79
79075;BME280;68476;42.710;23.388;2023-05-25T10:59:51;95687.97;;;18.38;66.42
79075;BME280;68476;42.710;23.388;2023-05-25T11:02:19;95685.50;;;18.31;68.34
79075;BME280;68476;42.710;23.388;2023-05-25T11:04:48;95679.09;;;18.82;66.94
79075;BME280;68476;42.710;23.388;2023-05-25T11:07:14;95684.09;;;18.59;67.28
79075;BME280;68476;42.710;23.388;2023-05-25T11:09:41;95678.34;;;18.40;66.13
79075;BME280;68476;42.710;23.388;2023-05-25T11:12:17;95675.28;;;18.37;66.13
79075;BME280;68476;42.710;23.388;2023-05-25T11:14:43;95684.41;;;18.47;65.46
79075;BME280;68476;42.710;23.388;2023-05-25T11:17:13;95675.53;;;18.71;64.90
79075;BME280;68476;42.710;23.388;2023-05-25T11:19:46;95679.53;;;19.36;64.51
79075;BME280;68476;42.710;23.388;2023-05-25T11:22:30;95673.75;;;19.88;62.93
79075;BME280;68476;42.710;23.388;2023-05-25T11:24:57;95672.38;;;19.90;63.71
79075;BME280;68476;42.710;23.388;2023-05-25T11:27:26;95676.22;;;19.29;66.23
79075;BME280;68476;42.710;23.388;2023-05-25T11:29:52;95680.47;;;19.00;66.21
79075;BME280;68476;42.710;23.388;2023-05-25T11:32:18;95682.50;;;19.50;63.96
79075;BME280;68476;42.710;23.388;2023-05-25T11:34:50;95685.81;;;19.52;64.04
79075;BME280;68476;42.710;23.388;2023-05-25T11:37:18;95680.81;;;19.59;63.80
79075;BME280;68476;42.710;23.388;2023-05-25T11:39:51;95677.66;;;19.21;64.32
79075;BME280;68476;42.710;23.388;2023-05-25T11:42:19;95676.38;;;19.63;63.38
79075;BME280;68476;42.710;23.388;2023-05-25T11:44:45;95665.59;;;21.05;59.53
79075;BME280;68476;42.710;23.388;2023-05-25T11:47:11;95658.84;;;21.17;57.19
79075;BME280;68476;42.710;23.388;2023-05-25T11:49:44;95658.78;;;21.22;56.84
79075;BME280;68476;42.710;23.388;2023-05-25T11:52:13;95668.69;;;21.04;57.18
79075;BME280;68476;42.710;23.388;2023-05-25T11:54:38;95665.84;;;21.33;56.89
79075;BME280;68476;42.710;23.388;2023-05-25T11:59:54;95656.91;;;22.04;54.15
79075;BME280;68476;42.710;23.388;2023-05-25T12:02:22;95657.34;;;22.63;51.96
79075;BME280;68476;42.710;23.388;2023-05-25T12:07:20;95647.56;;;24.88;47.30
79075;BME280;68476;42.710;23.388;2023-05-25T12:09:45;95645.22;;;24.13;47.78
79075;BME280;68476;42.710;23.388;2023-05-25T12:12:12;95639.50;;;24.77;46.45
79075;BME280;68476;42.710;23.388;2023-05-25T12:14:47;95636.94;;;24.67;45.12
79075;BME280;68476;42.710;23.388;2023-05-25T12:17:14;95633.16;;;24.40;44.57
79075;BME280;68476;42.710;23.388;2023-05-25T12:19:40;95629.94;;;26.17;42.11
79075;BME280;68476;42.710;23.388;2023-05-25T12:22:06;95627.38;;;28.02;36.83
79075;BME280;68476;42.710;23.388;2023-05-25T12:24:31;95627.06;;;28.04;36.20
79075;BME280;68476;42.710;23.388;2023-05-25T12:26:56;95618.53;;;25.69;39.77
79075;BME280;68476;42.710;23.388;2023-05-25T12:29:23;95611.66;;;26.72;37.96
79075;BME280;68476;42.710;23.388;2023-05-25T12:31:49;95612.59;;;26.76;37.86
79075;BME280;68476;42.710;23.388;2023-05-25T12:34:16;95602.03;;;27.47;37.19
79075;BME280;68476;42.710;23.388;2023-05-25T12:36:45;95600.00;;;27.18;37.76
79075;BME280;68476;42.710;23.388;2023-05-25T12:39:11;95603.81;;;28.03;36.25
79075;BME280;68476;42.710;23.388;2023-05-25T12:41:51;95600.75;;;28.38;34.59
79075;BME280;68476;42.710;23.388;2023-05-25T12:44:22;95598.59;;;27.03;36.26
79075;BME280;68476;42.710;23.388;2023-05-25T12:46:49;95587.69;;;28.42;33.47
79075;BME280;68476;42.710;23.388;2023-05-25T12:49:32;95582.16;;;30.41;32.10
79075;BME280;68476;42.710;23.388;2023-05-25T12:52:00;95578.03;;;30.51;30.12
79075;BME280;68476;42.710;23.388;2023-05-25T12:54:45;95565.44;;;30.32;31.53
79075;BME280;68476;42.710;23.388;2023-05-25T12:57:12;95562.06;;;29.73;30.67
79075;BME280;68476;42.710;23.388;2023-05-25T12:59:39;95551.81;;;29.40;29.80
79075;BME280;68476;42.710;23.388;2023-05-25T13:02:06;95542.41;;;29.11;31.27